Time;durP1;ratioP1;P1;durP2;ratioP2;P2;SDS_P1;SDS_P2;PMS_P1;PMS_P2;Temp;Humidity;BMP_temperature;BMP_pressure;BME280_temperature;BME280_humidity;BME280_pressure;Samples;Min_cycle;Max_cycle;Signal;HPM_P1;HPM_P2
2022/01/07 05:02:57;;;;;;;13.05;7.28;;;-0.30;99.90;;;;;;4936731;28;90928;-77
2022/01/07 05:05:22;;;;;;;16.42;8.27;;;-0.30;99.90;;;;;;4938900;28;89253;-77
2022/01/07 05:07:48;;;;;;;13.25;8.45;;;-0.30;99.90;;;;;;4938238;28;90380;-77
2022/01/07 05:10:15;;;;;;;13.40;7.25;;;-0.40;99.90;;;;;;4938606;28;89998;-77
2022/01/07 05:12:42;;;;;;;12.20;7.57;;;-0.30;99.90;;;;;;4938612;28;89243;-77
2022/01/07 05:15:09;;;;;;;15.00;7.38;;;-0.40;99.90;;;;;;4992890;22;92398;-73
2022/01/07 05:17:35;;;;;;;14.63;7.82;;;-0.40;99.90;;;;;;4997340;28;90461;-73
2022/01/07 05:20:01;;;;;;;13.98;7.55;;;-0.40;99.90;;;;;;4997479;28;89358;-74
2022/01/07 05:22:28;;;;;;;13.13;7.57;;;-0.40;99.90;;;;;;4997273;28;89484;-73
2022/01/07 05:24:53;;;;;;;16.23;8.00;;;-0.40;99.90;;;;;;4997299;28;88876;-73
2022/01/07 05:27:19;;;;;;;15.40;8.02;;;-0.50;99.90;;;;;;4997305;28;89289;-74
2022/01/07 05:29:45;;;;;;;18.20;6.97;;;-0.50;99.90;;;;;;4997355;28;89647;-73
2022/01/07 05:32:10;;;;;;;14.70;7.55;;;-0.50;99.90;;;;;;4997009;28;90290;-73
2022/01/07 05:34:36;;;;;;;20.20;8.02;;;-0.40;99.90;;;;;;4997172;28;89345;-73
2022/01/07 05:37:02;;;;;;;13.32;7.60;;;-0.40;99.90;;;;;;4997500;28;89308;-72
2022/01/07 05:39:27;;;;;;;13.25;7.57;;;-0.40;99.90;;;;;;4997367;28;89509;-73
2022/01/07 05:41:53;;;;;;;13.80;7.28;;;-0.50;99.90;;;;;;4997938;28;89190;-73
2022/01/07 05:44:19;;;;;;;12.15;7.60;;;-0.50;99.90;;;;;;4996938;28;89940;-73
2022/01/07 05:46:45;;;;;;;13.35;7.28;;;-0.50;99.90;;;;;;4996955;28;89267;-73
2022/01/07 05:49:11;;;;;;;15.40;7.60;;;-0.50;99.90;;;;;;4999314;28;89894;-74
2022/01/07 05:51:36;;;;;;;14.55;7.43;;;-0.50;99.90;;;;;;5000912;28;89146;-73
2022/01/07 05:54:02;;;;;;;11.15;7.32;;;-0.50;99.90;;;;;;5000126;28;89824;-73
2022/01/07 05:56:27;;;;;;;12.00;7.20;;;-0.50;99.90;;;;;;4999886;28;91056;-73
2022/01/07 05:58:53;;;;;;;16.65;7.60;;;-0.40;99.90;;;;;;5000211;28;91000;-74
2022/01/07 06:01:19;;;;;;;12.00;7.00;;;-0.40;99.90;;;;;;5000544;28;89357;-73
2022/01/07 06:03:44;;;;;;;14.32;7.65;;;-0.40;99.90;;;;;;5000232;28;90291;-72
2022/01/07 06:06:10;;;;;;;12.20;6.60;;;-0.30;99.90;;;;;;4999098;28;91614;-73
2022/01/07 06:08:36;;;;;;;13.07;6.97;;;-0.30;99.90;;;;;;4999526;28;91432;-73
2022/01/07 06:11:01;;;;;;;12.98;6.90;;;-0.20;99.90;;;;;;5001146;28;89291;-73
2022/01/07 06:13:27;;;;;;;11.52;6.57;;;-0.20;99.90;;;;;;5000802;28;89324;-75
2022/01/07 06:15:52;;;;;;;14.55;7.05;;;-0.20;99.90;;;;;;5015104;28;92045;-73
2022/01/07 06:18:18;;;;;;;11.15;6.93;;;-0.20;99.90;;;;;;5020968;28;89627;-73
2022/01/07 06:20:44;;;;;;;11.00;6.93;;;-0.20;99.90;;;;;;5020376;28;90222;-73
2022/01/07 06:23:09;;;;;;;13.18;6.93;;;-0.20;99.90;;;;;;5020108;28;89751;-73
2022/01/07 06:25:35;;;;;;;11.50;6.43;;;-0.20;99.90;;;;;;5020608;28;90175;-73
2022/01/07 06:28:00;;;;;;;12.07;6.85;;;-0.20;99.90;;;;;;5019811;28;90880;-73
2022/01/07 06:30:26;;;;;;;11.73;6.35;;;-0.20;99.90;;;;;;5020211;28;89144;-73
2022/01/07 06:32:52;;;;;;;12.82;6.50;;;-0.20;99.90;;;;;;5019846;28;90335;-73
2022/01/07 06:35:17;;;;;;;8.32;5.80;;;-0.20;99.90;;;;;;5019566;28;89330;-74
2022/01/07 06:37:43;;;;;;;10.95;6.18;;;-0.20;99.90;;;;;;5020063;28;89448;-73
2022/01/07 06:40:10;;;;;;;16.13;6.70;;;-0.30;99.90;;;;;;5020016;28;89306;-73
2022/01/07 06:42:35;;;;;;;10.77;6.53;;;-0.30;99.90;;;;;;5019397;28;90201;-73
2022/01/07 06:45:02;;;;;;;13.18;7.30;;;-0.30;99.90;;;;;;5024262;28;93548;-73
2022/01/07 06:47:27;;;;;;;12.13;6.45;;;-0.30;99.90;;;;;;5038489;28;92789;-73
2022/01/07 06:49:53;;;;;;;13.00;8.13;;;-0.20;99.90;;;;;;5039620;28;89250;-73
2022/01/07 06:52:19;;;;;;;14.65;7.60;;;-0.20;99.90;;;;;;5037759;28;92429;-75
2022/01/07 06:54:44;;;;;;;13.88;8.00;;;-0.30;99.90;;;;;;5039648;28;90096;-73
2022/01/07 06:57:10;;;;;;;22.13;10.30;;;-0.30;99.90;;;;;;5039757;28;89573;-75
2022/01/07 06:59:36;;;;;;;22.67;10.68;;;-0.20;99.90;;;;;;5039227;28;89214;-76
2022/01/07 07:02:01;;;;;;;16.52;9.38;;;-0.20;99.90;;;;;;5039355;28;89931;-74
2022/01/07 07:04:28;;;;;;;15.38;8.23;;;-0.20;99.90;;;;;;5039186;27;89247;-75
2022/01/07 07:06:54;;;;;;;17.30;7.28;;;-0.10;99.90;;;;;;5039989;28;89300;-74
2022/01/07 07:09:20;;;;;;;12.35;7.20;;;-0.10;99.90;;;;;;5039595;27;90287;-74
2022/01/07 07:11:46;;;;;;;14.77;7.65;;;-0.10;99.90;;;;;;5040418;28;89301;-75
2022/01/07 07:14:12;;;;;;;12.75;7.63;;;0.00;99.90;;;;;;5039268;27;89707;-74
2022/01/07 07:16:38;;;;;;;14.18;7.57;;;0.00;99.90;;;;;;5040026;28;89944;-74
2022/01/07 07:19:03;;;;;;;11.73;7.20;;;0.00;99.90;;;;;;5040071;28;89188;-75
2022/01/07 07:21:29;;;;;;;13.85;7.97;;;0.00;99.90;;;;;;5040073;27;89771;-74
2022/01/07 07:23:55;;;;;;;19.25;9.57;;;0.00;99.90;;;;;;5043940;28;91484;-74
2022/01/07 07:26:20;;;;;;;17.58;7.85;;;0.00;99.90;;;;;;5039612;28;89853;-75
2022/01/07 07:28:47;;;;;;;17.17;8.43;;;0.00;99.90;;;;;;5054658;27;89179;-75
2022/01/07 07:31:16;;;;;;;14.75;7.78;;;0.00;99.90;;;;;;5055912;27;89241;-74
2022/01/07 07:38:56;;;;;;;16.17;8.15;;;0.00;99.90;;;;;;5036493;27;89068;-74
2022/01/07 07:41:22;;;;;;;13.48;7.75;;;0.00;99.90;;;;;;5039290;28;90669;-77
2022/01/07 07:43:49;;;;;;;15.80;8.35;;;0.00;99.90;;;;;;5039046;28;92176;-76
2022/01/07 07:46:15;;;;;;;16.90;8.68;;;0.00;99.90;;;;;;5041538;27;89641;-69
2022/01/07 07:48:41;;;;;;;14.70;8.50;;;0.00;99.90;;;;;;5039975;27;89259;-75
2022/01/07 07:51:06;;;;;;;15.30;8.82;;;0.00;99.90;;;;;;5039545;28;89538;-74
2022/01/07 07:53:32;;;;;;;14.80;8.63;;;-0.10;99.90;;;;;;5038688;28;89890;-74
2022/01/07 07:55:58;;;;;;;16.50;9.20;;;-0.10;99.90;;;;;;5036367;27;90609;-74
2022/01/07 07:58:27;;;;;;;16.65;8.70;;;0.00;99.90;;;;;;5037083;27;90133;-74
2022/01/07 08:00:52;;;;;;;15.23;8.65;;;0.00;99.90;;;;;;5039056;27;89335;-74
2022/01/07 08:03:20;;;;;;;16.63;9.55;;;0.00;99.90;;;;;;5039371;28;90091;-74
2022/01/07 08:05:46;;;;;;;16.98;9.70;;;-0.10;99.90;;;;;;5038750;28;89923;-74
2022/01/07 08:08:11;;;;;;;15.43;8.77;;;0.00;99.90;;;;;;5039312;28;89347;-76
2022/01/07 08:10:49;;;;;;;16.30;8.73;;;0.00;99.90;;;;;;5039113;27;89697;-75
2022/01/07 08:16:00;;;;;;;16.00;9.07;;;0.20;99.90;;;;;;5038930;27;89631;-75
2022/01/07 08:18:30;;;;;;;14.27;8.40;;;0.30;99.90;;;;;;5039478;27;89183;-75
2022/01/07 08:20:58;;;;;;;15.13;7.75;;;0.40;99.90;;;;;;5038913;27;89263;-75
2022/01/07 08:23:24;;;;;;;14.57;8.43;;;0.50;99.90;;;;;;5038007;27;91015;-75
2022/01/07 08:25:50;;;;;;;14.02;8.13;;;0.50;99.90;;;;;;5038165;28;89731;-74
2022/01/07 08:28:17;;;;;;;14.82;8.65;;;0.60;99.90;;;;;;5037486;28;89222;-75
2022/01/07 08:36:33;;;;;;;16.00;8.23;;;0.80;99.90;;;;;;4975542;28;89348;-76
2022/01/07 08:39:00;;;;;;;12.75;8.23;;;0.90;99.90;;;;;;5012644;27;89694;-76
2022/01/07 08:41:30;;;;;;;13.88;8.10;;;0.90;99.90;;;;;;5037185;28;91500;-75
2022/01/07 08:44:02;;;;;;;15.98;9.10;;;1.00;99.90;;;;;;5038121;27;90127;-75
2022/01/07 08:46:32;;;;;;;13.65;7.97;;;1.20;99.90;;;;;;5038962;27;89229;-74
2022/01/07 08:48:58;;;;;;;14.18;7.70;;;1.20;99.90;;;;;;5037974;27;90787;-75
2022/01/07 08:51:26;;;;;;;14.20;8.30;;;1.30;99.90;;;;;;5039655;27;89401;-75
2022/01/07 08:53:52;;;;;;;12.25;7.68;;;1.30;99.90;;;;;;5037493;28;91703;-75
2022/01/07 08:56:18;;;;;;;12.25;7.68;;;1.40;99.90;;;;;;5037917;27;89351;-74
2022/01/07 08:58:43;;;;;;;12.75;7.82;;;1.50;99.90;;;;;;5037820;28;89221;-76
2022/01/07 09:01:09;;;;;;;13.40;7.47;;;1.50;99.90;;;;;;5018229;28;89532;-75
2022/01/07 09:03:38;;;;;;;13.65;8.13;;;1.60;99.90;;;;;;5017550;28;89260;-75
2022/01/07 09:06:03;;;;;;;10.75;7.22;;;1.60;99.90;;;;;;5017661;28;89011;-77
2022/01/07 09:08:30;;;;;;;13.20;7.53;;;1.70;99.90;;;;;;5018011;28;89260;-75
2022/01/07 09:10:56;;;;;;;13.50;7.53;;;1.70;99.90;;;;;;5017786;28;89331;-76
2022/01/07 09:13:22;;;;;;;14.20;7.75;;;1.80;99.90;;;;;;5016985;28;91157;-75
2022/01/07 09:15:47;;;;;;;14.48;7.78;;;2.00;99.90;;;;;;5016817;28;90691;-76
2022/01/07 09:18:14;;;;;;;14.63;7.80;;;1.90;99.90;;;;;;5018076;28;89226;-76
2022/01/07 09:20:41;;;;;;;12.68;7.78;;;2.00;99.90;;;;;;5016215;28;90803;-78
2022/01/07 09:23:08;;;;;;;13.77;7.68;;;2.20;99.90;;;;;;5019565;28;90178;-75
2022/01/07 09:25:34;;;;;;;12.82;7.38;;;2.30;99.90;;;;;;5019801;28;92565;-76
2022/01/07 09:28:00;;;;;;;14.75;8.23;;;2.40;99.90;;;;;;5021753;28;89308;-77
2022/01/07 09:30:26;;;;;;;15.48;7.20;;;2.40;99.90;;;;;;5021661;28;89359;-76
2022/01/07 09:32:52;;;;;;;10.93;7.15;;;2.40;99.90;;;;;;5020947;28;91394;-76
2022/01/07 09:35:17;;;;;;;12.73;7.13;;;2.40;99.90;;;;;;5021302;28;89181;-76
2022/01/07 09:37:43;;;;;;;10.73;6.97;;;2.40;99.90;;;;;;5019512;28;90286;-77
2022/01/07 09:40:14;;;;;;;12.32;7.65;;;2.40;99.90;;;;;;5021380;28;89812;-78
2022/01/07 09:43:07;;;;;;;10.95;6.78;;;2.50;99.90;;;;;;5020193;28;90742;-77
2022/01/07 09:45:34;;;;;;;11.55;7.28;;;2.70;99.90;;;;;;5022250;28;89547;-77
2022/01/07 09:48:04;;;;;;;13.02;7.03;;;2.90;99.90;;;;;;5021746;28;89180;-76
2022/01/07 09:50:31;;;;;;;11.80;7.25;;;2.90;99.90;;;;;;5019453;28;90919;-76
2022/01/07 09:52:57;;;;;;;10.25;6.78;;;3.10;99.90;;;;;;5021322;28;90010;-76
2022/01/07 09:55:23;;;;;;;11.48;6.72;;;3.20;99.90;;;;;;5021747;28;89781;-77
2022/01/07 09:57:49;;;;;;;12.38;7.43;;;3.20;99.90;;;;;;5021507;28;89300;-77
2022/01/07 10:00:15;;;;;;;12.38;6.72;;;3.20;99.90;;;;;;5020110;28;89387;-77
2022/01/07 10:03:02;;;;;;;13.07;7.50;;;3.20;99.90;;;;;;5020907;28;91017;-75
2022/01/07 10:05:29;;;;;;;10.63;7.20;;;3.10;99.90;;;;;;5020563;28;92627;-76
2022/01/07 10:08:13;;;;;;;13.20;7.30;;;2.90;99.90;;;;;;5021152;28;89364;-77
2022/01/07 10:10:38;;;;;;;13.20;7.53;;;2.70;99.90;;;;;;5021461;28;89115;-76
2022/01/07 10:13:04;;;;;;;12.73;7.55;;;2.50;99.90;;;;;;5020406;28;92107;-76
2022/01/07 10:15:32;;;;;;;12.80;7.82;;;2.40;99.90;;;;;;5020569;28;89337;-77
2022/01/07 10:18:05;;;;;;;12.45;7.47;;;2.30;99.90;;;;;;5020912;28;89276;-76
2022/01/07 10:20:37;;;;;;;13.18;8.27;;;2.10;99.90;;;;;;5020900;28;90254;-76
2022/01/07 10:23:06;;;;;;;13.27;7.85;;;2.00;99.90;;;;;;5022016;28;89834;-77
2022/01/07 10:25:37;;;;;;;15.52;8.38;;;2.00;99.90;;;;;;5022299;28;89137;-77
2022/01/07 10:28:28;;;;;;;16.13;8.90;;;1.80;99.90;;;;;;5040792;27;90151;-74
2022/01/07 10:30:55;;;;;;;14.65;8.23;;;1.60;99.90;;;;;;5037297;28;89399;-76
2022/01/07 10:33:35;;;;;;;16.13;8.55;;;1.60;99.90;;;;;;5018396;28;92230;-77
2022/01/07 10:36:06;;;;;;;15.18;8.25;;;1.50;99.90;;;;;;5018077;28;91599;-76
2022/01/07 10:38:34;;;;;;;14.43;8.73;;;1.50;99.90;;;;;;5020628;28;89189;-75
2022/01/07 10:41:03;;;;;;;16.50;8.57;;;1.60;99.90;;;;;;5020000;28;89354;-75
2022/01/07 10:43:36;;;;;;;20.98;10.57;;;1.50;99.90;;;;;;5020164;28;90298;-75
2022/01/07 10:46:11;;;;;;;17.35;9.73;;;1.50;99.90;;;;;;5021284;28;89261;-76
2022/01/07 10:48:47;;;;;;;15.77;10.05;;;1.60;99.90;;;;;;5020953;28;89186;-76
2022/01/07 10:51:18;;;;;;;19.10;11.20;;;1.60;99.90;;;;;;5020264;28;89307;-76
2022/01/07 10:54:10;;;;;;;23.77;11.55;;;1.70;99.90;;;;;;5016955;28;92085;-76
2022/01/07 10:56:39;;;;;;;16.08;9.20;;;1.60;99.90;;;;;;5020481;28;90781;-76
2022/01/07 10:59:04;;;;;;;17.83;9.60;;;1.60;99.90;;;;;;5019417;28;89410;-77
2022/01/07 11:01:37;;;;;;;15.50;9.02;;;1.70;99.90;;;;;;5019911;28;90251;-75
2022/01/07 11:04:07;;;;;;;14.70;8.95;;;1.70;99.90;;;;;;5019328;28;89930;-76
2022/01/07 11:06:33;;;;;;;15.95;10.02;;;1.70;99.90;;;;;;5018367;28;92657;-75
2022/01/07 11:09:00;;;;;;;14.65;8.52;;;1.60;99.90;;;;;;5019514;28;89269;-76
2022/01/07 11:11:28;;;;;;;15.75;8.52;;;1.70;99.90;;;;;;5019067;28;91145;-75
2022/01/07 11:13:55;;;;;;;17.05;8.85;;;1.80;99.90;;;;;;5018763;28;89175;-74
2022/01/07 11:16:20;;;;;;;13.70;8.95;;;1.70;99.90;;;;;;5020141;28;89145;-75
2022/01/07 11:18:49;;;;;;;19.85;10.27;;;1.60;99.90;;;;;;5019346;28;90672;-76
2022/01/07 11:21:18;;;;;;;14.95;8.68;;;1.60;99.90;;;;;;5017255;28;91470;-75
2022/01/07 11:23:47;;;;;;;16.80;9.27;;;1.60;99.90;;;;;;5017873;28;92054;-77
2022/01/07 11:26:16;;;;;;;18.90;9.55;;;1.70;99.90;;;;;;5019816;28;89240;-76
2022/01/07 11:29:00;;;;;;;16.17;8.88;;;1.70;99.90;;;;;;5020085;28;89155;-77
2022/01/07 11:31:28;;;;;;;16.27;9.93;;;1.80;99.90;;;;;;5019974;28;89560;-75
2022/01/07 11:34:32;;;;;;;18.25;9.68;;;1.70;99.90;;;;;;5019224;28;89867;-76
2022/01/07 11:36:58;;;;;;;17.42;9.75;;;1.80;99.90;;;;;;4924379;28;90656;-77
2022/01/07 11:39:23;;;;;;;16.27;9.02;;;1.80;99.90;;;;;;4939433;28;89481;-75
2022/01/07 11:41:55;;;;;;;17.77;10.27;;;1.70;99.90;;;;;;4964619;28;92014;-76
2022/01/07 11:44:27;;;;;;;16.40;9.63;;;1.80;99.90;;;;;;5017614;28;91361;-75
2022/01/07 11:47:19;;;;;;;15.98;9.93;;;1.70;99.90;;;;;;5017954;28;91210;-77
2022/01/07 11:49:45;;;;;;;16.90;10.00;;;1.70;99.90;;;;;;5018341;28;89457;-77
2022/01/07 11:52:37;;;;;;;19.52;10.68;;;1.70;99.90;;;;;;5005387;28;89866;-76
2022/01/07 11:55:23;;;;;;;17.10;9.90;;;1.70;99.90;;;;;;5010047;28;90091;-76
2022/01/07 11:58:01;;;;;;;20.95;12.05;;;1.80;99.90;;;;;;5016208;28;93044;-76
2022/01/07 12:00:56;;;;;;;18.02;10.38;;;1.90;99.90;;;;;;5017401;28;89428;-76
2022/01/07 12:03:43;;;;;;;15.43;10.20;;;2.00;99.90;;;;;;5018396;28;90263;-77
2022/01/07 12:06:24;;;;;;;15.98;9.48;;;2.10;99.90;;;;;;5016131;28;92130;-76
2022/01/07 12:08:58;;;;;;;16.08;9.20;;;2.00;99.90;;;;;;5021497;28;89440;-78
2022/01/07 12:11:28;;;;;;;20.48;9.73;;;1.90;99.90;;;;;;5020318;28;90301;-77
2022/01/07 12:13:57;;;;;;;16.60;10.55;;;2.00;99.90;;;;;;5019074;28;89741;-75
2022/01/07 12:16:28;;;;;;;18.85;10.02;;;2.00;99.90;;;;;;5018228;28;90439;-76
2022/01/07 12:19:12;;;;;;;19.15;10.10;;;2.00;99.90;;;;;;5019380;28;90118;-76
2022/01/07 12:21:41;;;;;;;17.15;9.88;;;2.10;99.90;;;;;;5019739;28;89335;-77
2022/01/07 12:24:09;;;;;;;18.27;10.63;;;2.00;99.90;;;;;;5020459;28;89363;-76
2022/01/07 12:26:35;;;;;;;16.95;10.05;;;2.00;99.90;;;;;;5016495;28;92497;-75
2022/01/07 12:29:00;;;;;;;23.02;10.40;;;2.10;99.90;;;;;;5019980;28;89980;-77
2022/01/07 12:31:26;;;;;;;16.77;9.57;;;1.80;99.90;;;;;;5017853;28;89400;-77
2022/01/07 12:33:57;;;;;;;17.15;10.65;;;1.80;99.90;;;;;;5025573;28;89032;-80
2022/01/07 12:36:34;;;;;;;20.58;11.20;;;1.90;99.90;;;;;;5022504;28;91251;-76
2022/01/07 12:39:13;;;;;;;18.45;10.07;;;1.90;99.90;;;;;;5026181;28;90888;-77
2022/01/07 12:41:39;;;;;;;16.15;9.70;;;1.90;99.90;;;;;;5021984;28;89134;-75
2022/01/07 12:44:12;;;;;;;19.38;10.95;;;1.90;99.90;;;;;;5023932;28;91143;-76
2022/01/07 12:46:38;;;;;;;19.00;10.20;;;2.00;99.90;;;;;;5020515;28;90338;-76
2022/01/07 12:49:06;;;;;;;18.50;10.32;;;2.00;99.90;;;;;;5025800;28;89733;-76
2022/01/07 12:51:35;;;;;;;16.30;10.00;;;2.00;99.90;;;;;;5021714;28;89387;-77
2022/01/07 12:54:04;;;;;;;18.33;10.55;;;2.10;99.90;;;;;;5021304;28;88988;-77
2022/01/07 12:56:38;;;;;;;16.75;10.20;;;2.10;99.90;;;;;;5021697;28;91100;-76
2022/01/07 12:59:21;;;;;;;17.48;9.93;;;2.20;99.90;;;;;;5020412;28;92468;-77
2022/01/07 13:01:51;;;;;;;16.50;10.50;;;2.30;99.90;;;;;;5027586;28;90299;-77
2022/01/07 13:04:25;;;;;;;21.05;11.77;;;2.40;99.90;;;;;;5023364;28;92583;-77
2022/01/07 13:06:56;;;;;;;21.02;12.60;;;2.40;99.90;;;;;;5023477;28;92429;-77
2022/01/07 13:09:23;;;;;;;22.65;14.73;;;2.50;99.90;;;;;;5020625;28;89282;-77
2022/01/07 13:11:51;;;;;;;22.48;12.15;;;2.60;99.90;;;;;;5018395;28;89531;-75
2022/01/07 13:14:20;;;;;;;15.43;9.85;;;2.70;99.90;;;;;;5017490;28;91103;-77
2022/01/07 13:16:51;;;;;;;18.58;10.55;;;2.70;99.90;;;;;;5021122;28;89828;-78
2022/01/07 13:19:16;;;;;;;19.42;10.77;;;2.80;99.90;;;;;;5018926;28;89919;-77
2022/01/07 13:21:43;;;;;;;20.20;10.25;;;2.90;99.90;;;;;;5018267;28;89298;-77
2022/01/07 13:24:14;;;;;;;27.90;14.85;;;2.90;99.90;;;;;;5017089;28;90333;-77
2022/01/07 13:26:41;;;;;;;17.45;9.73;;;2.80;99.90;;;;;;5020314;28;90810;-76
2022/01/07 13:29:18;;;;;;;16.55;9.10;;;2.90;99.90;;;;;;5018558;28;90707;-77
2022/01/07 13:31:46;;;;;;;12.35;8.43;;;2.80;99.90;;;;;;5027247;28;89218;-78
2022/01/07 13:34:21;;;;;;;18.55;9.95;;;2.90;99.90;;;;;;5032158;28;89705;-76
2022/01/07 13:36:50;;;;;;;14.02;8.57;;;2.90;99.90;;;;;;5028148;28;90406;-77
2022/01/07 13:39:20;;;;;;;18.17;9.32;;;2.80;99.90;;;;;;5019983;28;89865;-76
2022/01/07 13:42:00;;;;;;;16.52;10.05;;;2.80;99.90;;;;;;5017882;28;89455;-77
2022/01/07 13:44:27;;;;;;;16.33;10.30;;;2.90;99.90;;;;;;5015928;28;92330;-76
2022/01/07 13:47:03;;;;;;;17.90;10.25;;;2.80;99.90;;;;;;5019045;28;89965;-78
2022/01/07 13:49:31;;;;;;;16.65;10.95;;;2.80;99.90;;;;;;5018809;28;92578;-77
2022/01/07 13:52:01;;;;;;;14.75;8.68;;;2.70;99.90;;;;;;5017258;28;90139;-77
2022/01/07 13:54:32;;;;;;;15.00;8.90;;;2.70;99.90;;;;;;5020573;28;89238;-77
2022/01/07 13:57:04;;;;;;;21.23;12.73;;;2.60;99.90;;;;;;5022400;28;89189;-77
2022/01/07 13:59:50;;;;;;;15.50;9.68;;;2.50;99.90;;;;;;5021793;28;89229;-77
2022/01/07 14:02:21;;;;;;;18.35;9.70;;;2.60;99.90;;;;;;5019845;28;89029;-77
2022/01/07 14:04:51;;;;;;;17.35;10.07;;;2.50;99.90;;;;;;5022721;28;89968;-77
2022/01/07 14:07:21;;;;;;;16.05;10.15;;;2.40;99.90;;;;;;5021390;28;90453;-77
2022/01/07 14:10:07;;;;;;;17.75;9.80;;;2.40;99.90;;;;;;5019256;28;88823;-77
2022/01/07 14:12:35;;;;;;;19.45;10.20;;;2.40;99.90;;;;;;5021319;28;89198;-76
2022/01/07 14:15:09;;;;;;;16.10;9.40;;;2.40;99.90;;;;;;5019494;28;92201;-77
2022/01/07 14:17:36;;;;;;;18.20;9.98;;;2.30;99.90;;;;;;5022784;28;90377;-76
2022/01/07 14:20:04;;;;;;;17.33;9.68;;;2.20;99.90;;;;;;5019802;28;91193;-76
2022/01/07 14:22:31;;;;;;;14.48;9.23;;;2.10;99.90;;;;;;5020701;28;89659;-77
2022/01/07 14:24:58;;;;;;;16.02;9.57;;;2.10;99.90;;;;;;5020644;28;89356;-77
2022/01/07 14:27:28;;;;;;;14.68;9.40;;;2.20;99.90;;;;;;5020783;28;89938;-77
2022/01/07 14:29:54;;;;;;;15.15;9.13;;;2.20;99.90;;;;;;5018815;28;92073;-77
2022/01/07 14:32:21;;;;;;;13.90;9.05;;;2.20;99.90;;;;;;5020592;28;89386;-76
2022/01/07 14:34:48;;;;;;;19.27;9.70;;;2.30;99.90;;;;;;5019636;28;92131;-76
2022/01/07 14:37:14;;;;;;;16.10;9.18;;;2.20;99.90;;;;;;5019097;28;92710;-76
2022/01/07 14:39:41;;;;;;;16.23;9.73;;;2.30;99.90;;;;;;5020582;28;89760;-76
2022/01/07 14:42:06;;;;;;;17.25;9.40;;;2.30;99.90;;;;;;5023445;28;90131;-77
2022/01/07 14:44:32;;;;;;;15.50;9.13;;;2.30;99.90;;;;;;5024362;28;89374;-77
2022/01/07 14:46:58;;;;;;;16.77;9.48;;;2.30;99.90;;;;;;5025891;28;89309;-78
2022/01/07 14:49:23;;;;;;;16.90;9.50;;;2.30;99.90;;;;;;5021050;28;89342;-78
2022/01/07 14:51:50;;;;;;;17.83;10.18;;;2.30;99.90;;;;;;5019363;28;89293;-75
2022/01/07 14:54:16;;;;;;;17.15;10.18;;;2.30;99.90;;;;;;5019688;28;89724;-77
2022/01/07 14:56:41;;;;;;;15.40;9.90;;;2.30;99.90;;;;;;5018663;28;90274;-76
2022/01/07 14:59:07;;;;;;;14.55;10.00;;;2.30;99.90;;;;;;5018917;28;92140;-77
2022/01/07 15:01:32;;;;;;;16.65;10.48;;;2.30;99.90;;;;;;5019078;28;89280;-75
2022/01/07 15:03:58;;;;;;;19.92;11.23;;;2.30;99.90;;;;;;5017165;28;92698;-76
2022/01/07 15:06:24;;;;;;;16.25;9.63;;;2.30;99.90;;;;;;5018738;28;90377;-76
2022/01/07 15:08:50;;;;;;;16.27;9.90;;;2.30;99.90;;;;;;5019647;28;92227;-75
2022/01/07 15:11:16;;;;;;;14.48;9.00;;;2.30;99.90;;;;;;5020284;28;89562;-76
2022/01/07 15:13:44;;;;;;;15.05;9.30;;;2.30;99.90;;;;;;5019210;28;90008;-75
2022/01/07 15:18:54;;;;;;;14.32;8.98;;;2.30;99.90;;;;;;5019735;28;89694;-78
2022/01/07 15:21:20;;;;;;;14.95;8.85;;;2.40;99.90;;;;;;5020131;28;89292;-77
2022/01/07 15:23:45;;;;;;;15.57;8.52;;;2.40;99.90;;;;;;5020341;28;90070;-76
2022/01/07 15:26:14;;;;;;;13.13;8.63;;;2.40;99.90;;;;;;5020269;28;90214;-77
2022/01/07 15:28:39;;;;;;;13.52;8.57;;;2.40;99.90;;;;;;5019256;28;90823;-76
2022/01/07 15:31:05;;;;;;;16.83;8.65;;;2.40;99.90;;;;;;5018821;28;90247;-76
2022/01/07 15:33:31;;;;;;;17.10;9.48;;;2.40;99.90;;;;;;5018937;28;90224;-75
2022/01/07 15:35:56;;;;;;;16.65;10.00;;;2.40;99.90;;;;;;5016460;28;91234;-76
2022/01/07 15:38:25;;;;;;;15.80;9.23;;;2.40;99.90;;;;;;5017313;28;92305;-76
2022/01/07 15:40:50;;;;;;;15.27;9.07;;;2.40;99.90;;;;;;5019963;28;89243;-77
2022/01/07 15:43:16;;;;;;;14.25;8.60;;;2.40;99.90;;;;;;5019966;28;89813;-77
2022/01/07 15:45:43;;;;;;;14.48;8.70;;;2.40;99.90;;;;;;5022723;28;89891;-77
2022/01/07 15:48:11;;;;;;;14.75;7.63;;;2.40;99.90;;;;;;5019967;28;90055;-76
2022/01/07 15:50:38;;;;;;;14.23;8.63;;;2.40;99.90;;;;;;5020379;28;89398;-77
2022/01/07 15:53:04;;;;;;;15.35;8.20;;;2.40;99.90;;;;;;5017888;28;91466;-77
2022/01/07 15:55:29;;;;;;;16.13;9.57;;;2.40;99.90;;;;;;5018680;28;90946;-77
2022/01/07 15:57:55;;;;;;;15.68;9.55;;;2.40;99.90;;;;;;5018547;28;92500;-77
2022/01/07 16:00:20;;;;;;;16.05;9.07;;;2.40;99.90;;;;;;5019373;28;89723;-78
2022/01/07 16:02:46;;;;;;;14.77;9.00;;;2.40;99.90;;;;;;5019348;28;89672;-76
2022/01/07 16:05:11;;;;;;;13.88;8.98;;;2.40;99.90;;;;;;5019399;28;89919;-76
2022/01/07 16:07:37;;;;;;;14.18;8.45;;;2.40;99.90;;;;;;5018841;28;89308;-75
2022/01/07 16:10:04;;;;;;;13.35;8.10;;;2.40;99.90;;;;;;5019521;28;89245;-77
2022/01/07 16:12:30;;;;;;;12.52;8.00;;;2.50;99.90;;;;;;5018717;28;89732;-76
2022/01/07 16:14:56;;;;;;;19.10;9.55;;;2.50;99.90;;;;;;5017768;28;91147;-76
2022/01/07 16:17:22;;;;;;;13.38;8.65;;;2.50;99.90;;;;;;5019774;28;89497;-77
2022/01/07 16:19:47;;;;;;;12.07;8.10;;;2.50;99.90;;;;;;5019672;28;90547;-77
2022/01/07 16:22:13;;;;;;;18.00;9.45;;;2.50;99.90;;;;;;5018211;28;90778;-76
2022/01/07 16:24:39;;;;;;;15.10;8.98;;;2.50;99.90;;;;;;5018252;28;89909;-77
2022/01/07 16:27:04;;;;;;;12.18;8.63;;;2.50;99.90;;;;;;5019260;28;89653;-76
2022/01/07 16:29:33;;;;;;;15.05;8.05;;;2.50;99.90;;;;;;5021080;28;89293;-78
2022/01/07 16:31:59;;;;;;;12.32;8.15;;;2.50;99.90;;;;;;5018898;28;91371;-77
2022/01/07 16:34:25;;;;;;;14.57;8.20;;;2.50;99.90;;;;;;5019375;28;90193;-76
2022/01/07 16:36:51;;;;;;;12.35;7.47;;;2.50;99.90;;;;;;5021983;28;89529;-77
2022/01/07 16:39:17;;;;;;;12.35;7.78;;;2.50;99.90;;;;;;5040897;28;89088;-77
2022/01/07 16:41:42;;;;;;;12.38;7.63;;;2.50;99.90;;;;;;5034055;27;92610;-78
2022/01/07 16:44:09;;;;;;;13.48;7.90;;;2.60;99.90;;;;;;5020475;28;90412;-78
2022/01/07 16:46:35;;;;;;;11.98;7.50;;;2.60;99.90;;;;;;5020451;28;90658;-77
2022/01/07 16:49:01;;;;;;;10.48;6.43;;;2.60;99.90;;;;;;5019970;28;89230;-77
2022/01/07 16:51:26;;;;;;;14.40;9.60;;;2.60;99.90;;;;;;5019124;28;90007;-77
2022/01/07 16:53:52;;;;;;;13.43;9.00;;;2.60;99.90;;;;;;5017614;28;90961;-76
2022/01/07 16:56:17;;;;;;;12.93;7.63;;;2.60;99.90;;;;;;5018193;28;89319;-76
2022/01/07 16:58:43;;;;;;;13.90;7.15;;;2.60;99.90;;;;;;5018090;28;89162;-76
2022/01/07 17:01:09;;;;;;;10.05;5.97;;;2.70;99.90;;;;;;5018471;28;89268;-77
2022/01/07 17:03:36;;;;;;;8.73;5.65;;;2.70;99.90;;;;;;5017746;28;89126;-76
2022/01/07 17:06:02;;;;;;;9.75;5.38;;;2.70;99.90;;;;;;5017637;28;89368;-77
2022/01/07 17:08:28;;;;;;;9.85;6.03;;;2.70;99.90;;;;;;5017901;28;90472;-78
2022/01/07 17:10:53;;;;;;;10.60;6.13;;;2.70;99.90;;;;;;5019491;28;91342;-78
2022/01/07 17:13:19;;;;;;;10.40;6.20;;;2.70;99.90;;;;;;5020169;28;90569;-76
2022/01/07 17:15:45;;;;;;;11.05;6.97;;;2.70;99.90;;;;;;5017335;28;91412;-79
2022/01/07 17:18:10;;;;;;;10.93;7.20;;;2.70;99.90;;;;;;5019630;28;89298;-82
2022/01/07 17:20:36;;;;;;;12.27;6.93;;;2.70;99.90;;;;;;5021713;28;90499;-78
2022/01/07 17:23:02;;;;;;;12.15;7.15;;;2.80;99.90;;;;;;5019772;28;89299;-79
2022/01/07 17:25:28;;;;;;;12.15;7.18;;;2.80;99.90;;;;;;5024251;28;89656;-79
2022/01/07 17:27:54;;;;;;;9.30;6.30;;;2.80;99.90;;;;;;5022573;28;89205;-78
2022/01/07 17:30:20;;;;;;;9.00;6.38;;;2.80;99.90;;;;;;5020036;28;89668;-77
2022/01/07 17:32:46;;;;;;;8.73;6.00;;;2.80;99.90;;;;;;5018291;28;90150;-77
2022/01/07 17:35:12;;;;;;;10.70;6.15;;;2.70;99.90;;;;;;5015786;28;92402;-76
2022/01/07 17:37:37;;;;;;;10.48;6.82;;;2.70;99.90;;;;;;5017824;28;89216;-77
2022/01/07 17:40:05;;;;;;;10.43;6.65;;;2.70;99.90;;;;;;5017213;28;89374;-77
2022/01/07 17:42:31;;;;;;;8.93;5.75;;;2.70;99.90;;;;;;5017270;28;89279;-77
2022/01/07 17:44:57;;;;;;;11.68;6.75;;;2.70;99.90;;;;;;5018978;28;91690;-77
2022/01/07 17:47:22;;;;;;;11.05;6.53;;;2.70;99.90;;;;;;5020531;28;89615;-77
2022/01/07 17:49:48;;;;;;;8.00;5.78;;;2.70;99.90;;;;;;5023720;28;88936;-77
2022/01/07 17:52:13;;;;;;;9.20;6.50;;;2.60;99.90;;;;;;5022411;28;89157;-77
2022/01/07 17:54:39;;;;;;;13.15;8.02;;;2.60;99.90;;;;;;5020481;28;89527;-77
2022/01/07 17:57:06;;;;;;;11.55;7.80;;;2.60;99.90;;;;;;5020541;28;90207;-78
2022/01/07 17:59:33;;;;;;;11.43;7.47;;;2.60;99.90;;;;;;5019349;28;91493;-76
2022/01/07 18:01:59;;;;;;;12.00;7.72;;;2.60;99.90;;;;;;5020674;28;90639;-79
2022/01/07 18:04:25;;;;;;;14.70;7.85;;;2.60;99.90;;;;;;5020629;28;90935;-76
2022/01/07 18:06:51;;;;;;;12.25;7.50;;;2.60;99.90;;;;;;5009160;28;89405;-77